Time;durP1;ratioP1;P1;durP2;ratioP2;P2;SDS_P1;SDS_P2;PMS_P1;PMS_P2;Temp;Humidity;BMP_temperature;BMP_pressure;BME280_temperature;BME280_humidity;BME280_pressure;Samples;Min_cycle;Max_cycle;Signal;HPM_P1;HPM_P2
2021/08/25 00:00:55;;;;;;;15.80;9.65;;;;;;;-140.79;100.00;63287.88;4988689;28;20022;-76
2021/08/25 00:03:20;;;;;;;13.05;9.75;;;;;;;-140.79;100.00;63287.88;4988368;28;20056;-76
2021/08/25 00:05:45;;;;;;;15.95;10.43;;;;;;;-140.79;100.00;63287.88;4988570;28;20584;-76
2021/08/25 00:08:11;;;;;;;15.05;10.35;;;;;;;-140.79;100.00;63287.88;5005982;28;20406;-76
2021/08/25 00:10:36;;;;;;;13.73;9.38;;;;;;;-140.79;100.00;63287.88;4988126;28;20053;-76
2021/08/25 00:13:06;;;;;;;16.45;10.55;;;;;;;-140.79;100.00;63287.88;5005845;28;20038;-76
2021/08/25 00:15:39;;;;;;;13.55;9.75;;;;;;;-140.79;100.00;63287.88;5005613;28;20701;-77
2021/08/25 00:18:05;;;;;;;14.23;10.07;;;;;;;-140.79;100.00;63287.88;5005337;28;20038;-76
2021/08/25 00:20:30;;;;;;;16.52;10.55;;;;;;;-140.79;100.00;63287.88;4987819;28;20540;-76
2021/08/25 00:22:56;;;;;;;14.75;10.55;;;;;;;-140.79;100.00;63287.88;5005733;28;20109;-75
2021/08/25 00:25:22;;;;;;;13.80;10.43;;;;;;;-140.79;100.00;63287.88;5005686;28;20022;-76
2021/08/25 00:27:47;;;;;;;15.55;10.07;;;;;;;-140.79;100.00;63287.88;5006153;28;20033;-77
2021/08/25 00:30:13;;;;;;;14.20;10.48;;;;;;;-140.79;100.00;63287.88;5006073;28;20520;-77
2021/08/25 00:32:38;;;;;;;16.58;10.35;;;;;;;-140.79;100.00;63287.88;5006052;28;20064;-76
2021/08/25 00:35:04;;;;;;;15.50;9.98;;;;;;;-140.79;100.00;63287.88;5006311;28;20029;-77
2021/08/25 00:37:29;;;;;;;14.25;10.55;;;;;;;-140.79;100.00;63287.88;5006043;28;20030;-76
2021/08/25 00:39:55;;;;;;;15.98;10.85;;;;;;;-140.79;100.00;63287.88;5006126;28;20030;-77
2021/08/25 00:42:21;;;;;;;16.52;11.27;;;;;;;-140.79;100.00;63287.88;5009486;28;20041;-76
2021/08/25 00:44:46;;;;;;;14.95;10.88;;;;;;;-140.79;100.00;63287.88;5010625;28;20030;-75
2021/08/25 00:47:16;;;;;;;16.88;11.43;;;;;;;-140.79;100.00;63287.88;5009395;28;20033;-75
2021/08/25 00:49:43;;;;;;;16.83;11.75;;;;;;;-140.79;100.00;63287.88;5009481;28;20021;-75
2021/08/25 00:52:09;;;;;;;16.83;11.38;;;;;;;-140.79;100.00;63287.88;5009559;28;20052;-75
2021/08/25 00:54:34;;;;;;;15.50;11.15;;;;;;;-140.79;100.00;63287.88;5008791;28;20022;-75
2021/08/25 00:57:00;;;;;;;16.88;10.95;;;;;;;-140.79;100.00;63287.88;5008922;28;20601;-77
2021/08/25 00:59:25;;;;;;;13.90;10.10;;;;;;;-140.79;100.00;63287.88;4975631;28;20029;-77
2021/08/25 01:02:22;;;;;;;15.70;10.70;;;;;;;-140.79;100.00;63287.88;4991446;28;20022;-76
2021/08/25 01:04:52;;;;;;;15.75;10.68;;;;;;;-140.79;100.00;63287.88;4994642;28;20073;-77
2021/08/25 01:07:18;;;;;;;14.55;10.45;;;;;;;-140.79;100.00;63287.88;4991846;28;20085;-77
2021/08/25 01:09:43;;;;;;;15.65;10.60;;;;;;;-140.79;100.00;63287.88;5009464;28;20629;-77
2021/08/25 01:12:09;;;;;;;17.33;10.90;;;;;;;-140.79;100.00;63287.88;5008680;28;20025;-75
2021/08/25 01:14:35;;;;;;;15.25;10.98;;;;;;;-140.79;100.00;63287.88;5009235;28;20024;-75
2021/08/25 01:17:00;;;;;;;15.30;11.00;;;;;;;-140.79;100.00;63287.88;5008709;28;20108;-77
2021/08/25 01:19:26;;;;;;;15.32;10.35;;;;;;;-140.79;100.00;63287.88;4990184;28;20094;-75
2021/08/25 01:21:52;;;;;;;14.60;10.73;;;;;;;-140.79;100.00;63287.88;5006866;28;20432;-74
2021/08/25 01:24:18;;;;;;;17.63;12.02;;;;;;;-140.79;100.00;63287.88;5005608;28;20037;-77
2021/08/25 01:26:43;;;;;;;16.42;11.27;;;;;;;-140.79;100.00;63287.88;4942944;28;20038;-75
2021/08/25 01:29:28;;;;;;;15.05;10.40;;;;;;;-140.79;100.00;63287.88;4972675;28;20034;-75
2021/08/25 01:31:54;;;;;;;16.48;11.23;;;;;;;-140.79;100.00;63287.88;4989511;28;20022;-77
2021/08/25 01:34:19;;;;;;;17.88;11.75;;;;;;;-140.79;100.00;63287.88;4972104;28;20026;-76
2021/08/25 01:36:47;;;;;;;15.52;10.57;;;;;;;-140.79;100.00;63287.88;4989085;28;20038;-77
2021/08/25 01:39:13;;;;;;;18.33;11.50;;;;;;;-140.79;100.00;63287.88;4955787;28;20045;-75
2021/08/25 01:41:38;;;;;;;15.70;10.68;;;;;;;-140.79;100.00;63287.88;4989152;28;20448;-75
2021/08/25 01:44:04;;;;;;;14.20;10.68;;;;;;;-140.79;100.00;63287.88;4988959;28;20421;-75
2021/08/25 01:46:37;;;;;;;15.73;11.02;;;;;;;-140.79;100.00;63287.88;4988649;28;20022;-75
2021/08/25 01:49:08;;;;;;;15.73;11.25;;;;;;;-140.79;100.00;63287.88;4988851;28;20033;-75
2021/08/25 01:51:34;;;;;;;14.05;10.23;;;;;;;-140.79;100.00;63287.88;4971380;28;20061;-75
2021/08/25 01:54:00;;;;;;;15.75;11.07;;;;;;;-140.79;100.00;63287.88;4988285;28;20647;-75
2021/08/25 01:56:26;;;;;;;17.00;10.93;;;;;;;-140.79;100.00;63287.88;4988735;28;20061;-75
2021/08/25 01:58:52;;;;;;;19.13;10.85;;;;;;;-140.79;100.00;63287.88;4988606;28;20394;-75
2021/08/25 02:01:17;;;;;;;17.55;11.32;;;;;;;-140.79;100.00;63287.88;4989396;28;20101;-75
2021/08/25 02:03:43;;;;;;;17.23;10.38;;;;;;;-140.79;100.00;63287.88;4988540;28;20128;-75
2021/08/25 02:06:08;;;;;;;15.88;11.02;;;;;;;-140.79;100.00;63287.88;4988511;28;20031;-76
2021/08/25 02:08:34;;;;;;;16.17;11.05;;;;;;;-140.79;100.00;63287.88;4988708;28;20484;-76
2021/08/25 02:10:59;;;;;;;17.23;11.30;;;;;;;-140.79;100.00;63287.88;4988347;28;20034;-76
2021/08/25 02:13:25;;;;;;;16.33;11.48;;;;;;;-140.79;100.00;63287.88;4988458;28;20555;-75
2021/08/25 02:15:50;;;;;;;19.55;11.43;;;;;;;-140.79;100.00;63287.88;4988205;28;20055;-75
2021/08/25 02:18:16;;;;;;;15.18;10.70;;;;;;;-140.79;100.00;63287.88;4988448;28;20049;-75
2021/08/25 02:20:41;;;;;;;15.93;10.65;;;;;;;-140.79;100.00;63287.88;4988449;28;20022;-76
2021/08/25 02:23:07;;;;;;;16.27;11.55;;;;;;;-140.79;100.00;63287.88;4988378;28;20031;-75
2021/08/25 02:25:32;;;;;;;17.77;11.23;;;;;;;-140.79;100.00;63287.88;4988365;28;20038;-76
2021/08/25 02:27:58;;;;;;;17.63;11.00;;;;;;;-140.79;100.00;63287.88;4988277;28;20026;-76
2021/08/25 02:30:23;;;;;;;19.20;11.10;;;;;;;-140.79;100.00;63287.88;4988168;28;20022;-76
2021/08/25 02:32:48;;;;;;;15.55;11.23;;;;;;;-140.79;100.00;63287.88;4988055;28;20053;-76
2021/08/25 02:35:14;;;;;;;15.65;11.50;;;;;;;-140.79;100.00;63287.88;4988127;28;20381;-76
2021/08/25 02:37:39;;;;;;;15.20;10.90;;;;;;;-140.79;100.00;63287.88;4988072;28;20468;-76
2021/08/25 02:40:06;;;;;;;16.15;10.90;;;;;;;-140.79;100.00;63287.88;4987783;28;20497;-76
2021/08/25 02:42:31;;;;;;;15.23;10.77;;;;;;;-140.79;100.00;63287.88;4970807;28;20049;-76
2021/08/25 02:44:57;;;;;;;17.05;11.77;;;;;;;-140.79;100.00;63287.88;4970984;28;20054;-76
2021/08/25 02:47:22;;;;;;;16.50;10.70;;;;;;;-140.79;100.00;63287.88;4988146;28;20646;-76
2021/08/25 02:49:48;;;;;;;17.33;11.25;;;;;;;-140.79;100.00;63287.88;4988316;28;20026;-76
2021/08/25 02:52:13;;;;;;;18.15;12.13;;;;;;;-140.79;100.00;63287.88;4970747;28;20029;-76
2021/08/25 02:54:39;;;;;;;15.65;10.60;;;;;;;-140.79;100.00;63287.88;4988708;28;20045;-76
2021/08/25 02:57:04;;;;;;;16.42;11.27;;;;;;;-140.79;100.00;63287.88;4991100;28;20429;-75
2021/08/25 02:59:29;;;;;;;16.48;11.00;;;;;;;-140.79;100.00;63287.88;4987733;28;20057;-76
2021/08/25 03:01:55;;;;;;;17.50;11.55;;;;;;;-140.79;100.00;63287.88;4970276;28;20063;-76
2021/08/25 03:04:21;;;;;;;19.40;12.30;;;;;;;-140.79;100.00;63287.88;4986583;28;20746;-76
2021/08/25 03:06:46;;;;;;;16.83;11.88;;;;;;;-140.79;100.00;63287.88;5005733;28;20036;-75
2021/08/25 03:09:12;;;;;;;16.88;12.07;;;;;;;-140.79;100.00;63287.88;5006825;28;20040;-76
2021/08/25 03:11:38;;;;;;;17.70;11.45;;;;;;;-140.79;100.00;63287.88;5007286;28;20029;-76
2021/08/25 03:14:03;;;;;;;18.00;12.25;;;;;;;-140.79;100.00;63287.88;5007141;28;20044;-76
2021/08/25 03:16:30;;;;;;;16.60;12.52;;;;;;;-140.79;100.00;63287.88;5006374;28;20042;-76
2021/08/25 03:18:56;;;;;;;20.38;12.50;;;;;;;-140.79;100.00;63287.88;5005710;28;20040;-76
2021/08/25 03:21:21;;;;;;;19.10;11.70;;;;;;;-140.79;100.00;63287.88;5006862;28;20037;-76
2021/08/25 03:23:47;;;;;;;17.60;11.88;;;;;;;-140.79;100.00;63287.88;5006718;28;20485;-76
2021/08/25 03:26:12;;;;;;;19.30;12.27;;;;;;;-140.79;100.00;63287.88;5006939;28;20032;-76
2021/08/25 03:28:37;;;;;;;19.20;11.20;;;;;;;-140.79;100.00;63287.88;4989363;28;20040;-76
2021/08/25 03:31:04;;;;;;;17.35;11.75;;;;;;;-140.79;100.00;63287.88;5007486;28;20037;-78
2021/08/25 03:33:29;;;;;;;18.65;12.00;;;;;;;-140.79;100.00;63287.88;5002718;28;20045;-76
2021/08/25 03:35:55;;;;;;;18.83;12.23;;;;;;;-140.79;100.00;63287.88;4988836;28;20046;-76
2021/08/25 03:38:20;;;;;;;19.30;12.65;;;;;;;-140.79;100.00;63287.88;4987985;28;20030;-76
2021/08/25 03:40:46;;;;;;;19.48;11.85;;;;;;;-140.79;100.00;63287.88;4988735;28;20048;-76
2021/08/25 03:43:11;;;;;;;18.05;11.93;;;;;;;-140.79;100.00;63287.88;4988674;28;20030;-77
2021/08/25 03:45:36;;;;;;;17.33;11.23;;;;;;;-140.79;100.00;63287.88;4988692;28;20464;-76
2021/08/25 03:48:02;;;;;;;19.85;11.82;;;;;;;-140.79;100.00;63287.88;4990644;28;20038;-76
2021/08/25 03:50:28;;;;;;;18.50;12.18;;;;;;;-140.79;100.00;63287.88;4987443;28;20578;-77
2021/08/25 03:52:53;;;;;;;17.35;11.18;;;;;;;-140.79;100.00;63287.88;5003858;28;20033;-76
2021/08/25 03:55:18;;;;;;;17.70;12.73;;;;;;;-140.79;100.00;63287.88;4994947;28;20029;-76
2021/08/25 03:57:44;;;;;;;18.55;11.50;;;;;;;-140.79;100.00;63287.88;4986404;28;20038;-76
2021/08/25 04:00:10;;;;;;;16.65;11.25;;;;;;;-140.79;100.00;63287.88;5005237;28;20041;-75
2021/08/25 04:02:35;;;;;;;19.80;11.60;;;;;;;-140.79;100.00;63287.88;5003853;28;20817;-76
2021/08/25 04:05:01;;;;;;;16.98;11.38;;;;;;;-140.79;100.00;63287.88;5005218;28;20030;-76
2021/08/25 04:07:26;;;;;;;17.58;11.30;;;;;;;-140.79;100.00;63287.88;4992730;28;20042;-78
2021/08/25 04:09:52;;;;;;;15.65;10.50;;;;;;;-140.79;100.00;63287.88;4989315;28;20715;-76
2021/08/25 04:12:17;;;;;;;19.30;10.98;;;;;;;-140.79;100.00;63287.88;5007083;28;20026;-76
2021/08/25 04:14:42;;;;;;;20.92;16.35;;;;;;;-140.79;100.00;63287.88;5007010;28;20026;-78
2021/08/25 04:17:08;;;;;;;19.33;14.40;;;;;;;-140.79;100.00;63287.88;5009554;28;20033;-73
2021/08/25 04:19:34;;;;;;;125.22;83.68;;;;;;;-140.79;100.00;63287.88;5012999;28;20033;-73
2021/08/25 04:22:00;;;;;;;32.55;28.25;;;;;;;-140.79;100.00;63287.88;4995961;28;20427;-74
2021/08/25 04:24:25;;;;;;;35.90;32.28;;;;;;;-140.79;100.00;63287.88;5014545;28;20030;-74
2021/08/25 04:26:51;;;;;;;24.35;21.90;;;;;;;-140.79;100.00;63287.88;5017714;28;20025;-74
2021/08/25 04:29:16;;;;;;;22.58;16.50;;;;;;;-140.79;100.00;63287.88;5014677;28;20140;-74
2021/08/25 04:31:42;;;;;;;15.80;9.88;;;;;;;-140.79;100.00;63287.88;5033372;28;20033;-74
2021/08/25 04:34:07;;;;;;;14.48;9.45;;;;;;;-140.79;100.00;63287.88;5035288;28;20033;-74
2021/08/25 04:36:33;;;;;;;13.18;9.60;;;;;;;-140.79;100.00;63287.88;5032693;28;20037;-75
2021/08/25 04:38:58;;;;;;;12.70;8.90;;;;;;;-140.79;100.00;63287.88;5032656;28;20041;-75
2021/08/25 04:41:24;;;;;;;12.40;9.10;;;;;;;-140.79;100.00;63287.88;5032515;28;20496;-74
2021/08/25 04:43:49;;;;;;;14.32;8.73;;;;;;;-140.79;100.00;63287.88;5032882;28;20036;-81
2021/08/25 04:46:18;;;;;;;12.95;8.23;;;;;;;-140.79;100.00;63287.88;5032031;28;20029;-75
2021/08/25 04:48:43;;;;;;;14.70;9.45;;;;;;;-140.79;100.00;63287.88;5020884;28;20030;-75
2021/08/25 04:51:11;;;;;;;13.18;7.75;;;;;;;-140.79;100.00;63287.88;4993618;28;20034;-74
2021/08/25 04:53:37;;;;;;;13.93;8.27;;;;;;;-140.79;100.00;63287.88;4992339;28;20037;-75
2021/08/25 04:56:02;;;;;;;12.82;8.45;;;;;;;-140.79;100.00;63287.88;5012327;28;20047;-75
2021/08/25 04:58:28;;;;;;;12.88;8.15;;;;;;;-140.79;100.00;63287.88;5012227;28;20435;-74
2021/08/25 05:00:53;;;;;;;16.08;8.77;;;;;;;-140.79;100.00;63287.88;4994776;28;20175;-75
2021/08/25 05:03:19;;;;;;;14.85;9.32;;;;;;;-140.79;100.00;63287.88;5012054;28;20123;-74
2021/08/25 05:05:44;;;;;;;12.38;9.20;;;;;;;-140.79;100.00;63287.88;5012932;28;20037;-75
2021/08/25 05:08:10;;;;;;;14.45;9.65;;;;;;;-140.79;100.00;63287.88;5013122;28;20101;-75
2021/08/25 05:10:35;;;;;;;15.60;10.00;;;;;;;-140.79;100.00;63287.88;5012865;28;20053;-76
2021/08/25 05:13:01;;;;;;;14.77;9.15;;;;;;;-140.79;100.00;63287.88;5012873;28;20026;-76
2021/08/25 05:15:26;;;;;;;14.10;9.02;;;;;;;-140.79;100.00;63287.88;4995020;28;20393;-75
2021/08/25 05:17:51;;;;;;;15.27;9.52;;;;;;;-140.79;100.00;63287.88;5012862;28;20030;-75
2021/08/25 05:20:17;;;;;;;15.98;10.52;;;;;;;-140.79;100.00;63287.88;5012945;28;20029;-76
2021/08/25 05:22:42;;;;;;;13.68;9.07;;;;;;;-140.79;100.00;63287.88;4994986;28;20216;-74
2021/08/25 05:25:08;;;;;;;16.20;9.38;;;;;;;-140.79;100.00;63287.88;5012563;28;20029;-75
2021/08/25 05:27:33;;;;;;;22.60;10.45;;;;;;;-140.79;100.00;63287.88;5012344;28;20036;-75
2021/08/25 05:29:59;;;;;;;17.42;9.88;;;;;;;-140.79;100.00;63287.88;5008817;28;20038;-80
2021/08/25 05:32:24;;;;;;;106.07;51.70;;;;;;;-140.79;100.00;63287.88;4991705;28;20034;-82
2021/08/25 05:34:50;;;;;;;14.45;9.60;;;;;;;-140.79;100.00;63287.88;4968081;28;20030;-72
2021/08/25 05:37:15;;;;;;;15.60;9.48;;;;;;;-140.79;100.00;63287.88;5006716;28;20029;-71
2021/08/25 05:39:41;;;;;;;14.65;9.40;;;;;;;-140.79;100.00;63287.88;5005004;28;20049;-71
2021/08/25 05:42:06;;;;;;;17.50;9.73;;;;;;;-140.79;100.00;63287.88;5007532;28;20037;-71
2021/08/25 05:44:32;;;;;;;16.08;9.43;;;;;;;-140.79;100.00;63287.88;4999639;28;20030;-71
2021/08/25 05:46:57;;;;;;;15.45;10.68;;;;;;;-140.79;100.00;63287.88;5002632;28;20037;-73
2021/08/25 05:49:23;;;;;;;13.77;9.73;;;;;;;-140.79;100.00;63287.88;5007752;28;20136;-71
2021/08/25 05:51:49;;;;;;;14.15;10.02;;;;;;;-140.79;100.00;63287.88;5007836;28;20500;-71
2021/08/25 05:54:14;;;;;;;14.43;9.82;;;;;;;-140.79;100.00;63287.88;4990199;28;20038;-72
2021/08/25 05:56:40;;;;;;;15.05;10.13;;;;;;;-140.79;100.00;63287.88;4987819;28;20758;-73
2021/08/25 05:59:05;;;;;;;16.60;10.80;;;;;;;-140.79;100.00;63287.88;4984997;28;20038;-74
2021/08/25 06:01:31;;;;;;;16.88;10.23;;;;;;;-140.79;100.00;63287.88;4990128;28;20034;-71
2021/08/25 06:03:56;;;;;;;12.75;9.52;;;;;;;-140.79;100.00;63287.88;5007272;28;20050;-71
2021/08/25 06:06:22;;;;;;;14.13;9.85;;;;;;;-140.79;100.00;63287.88;5007909;28;20022;-71
2021/08/25 06:08:47;;;;;;;15.18;10.82;;;;;;;-140.79;100.00;63287.88;5007563;28;20037;-73
2021/08/25 06:11:13;;;;;;;14.27;10.10;;;;;;;-140.79;100.00;63287.88;5004049;28;20034;-75
2021/08/25 06:13:38;;;;;;;20.60;10.90;;;;;;;-140.79;100.00;63287.88;4994777;28;20045;-72
2021/08/25 06:16:05;;;;;;;15.57;10.95;;;;;;;-140.79;100.00;63287.88;4996779;28;20499;-75
2021/08/25 06:18:31;;;;;;;24.48;11.23;;;;;;;-140.79;100.00;63287.88;4992821;28;20030;-76
2021/08/25 06:20:56;;;;;;;21.35;11.07;;;;;;;-140.79;100.00;63287.88;4995594;28;20045;-70
2021/08/25 06:23:22;;;;;;;14.60;9.50;;;;;;;-140.79;100.00;63287.88;4989753;28;20049;-72
2021/08/25 06:25:49;;;;;;;15.52;9.93;;;;;;;-140.79;100.00;63287.88;4998697;28;20044;-77
2021/08/25 06:28:15;;;;;;;14.88;9.52;;;;;;;-140.79;100.00;63287.88;5002391;28;20030;-76
2021/08/25 06:30:40;;;;;;;15.65;8.63;;;;;;;-140.79;100.00;63287.88;5005020;28;20042;-78
2021/08/25 06:33:06;;;;;;;14.57;8.98;;;;;;;-140.79;100.00;63287.88;5004308;28;20486;-78
2021/08/25 06:35:31;;;;;;;14.52;9.20;;;;;;;-140.79;100.00;63287.88;4981843;28;20555;-79
2021/08/25 06:37:57;;;;;;;13.95;9.68;;;;;;;-140.79;100.00;63287.88;5004350;28;20116;-80
2021/08/25 06:40:22;;;;;;;14.50;10.05;;;;;;;-140.79;100.00;63287.88;4997913;28;20030;-79
2021/08/25 06:42:47;;;;;;;15.30;10.88;;;;;;;-140.79;100.00;63287.88;5006258;28;20033;-80
2021/08/25 06:45:13;;;;;;;17.77;11.30;;;;;;;-140.79;100.00;63287.88;4997508;28;20029;-80
2021/08/25 06:47:38;;;;;;;15.02;10.55;;;;;;;-140.79;100.00;63287.88;5003918;28;20034;-79
2021/08/25 06:50:04;;;;;;;17.67;10.18;;;;;;;-140.79;100.00;63287.88;5008721;28;20022;-80
2021/08/25 06:52:30;;;;;;;14.25;10.05;;;;;;;-140.79;100.00;63287.88;4988337;28;20053;-80
2021/08/25 06:54:55;;;;;;;18.88;11.25;;;;;;;-140.79;100.00;63287.88;5006262;28;20660;-79
2021/08/25 06:57:21;;;;;;;17.90;11.45;;;;;;;-140.79;100.00;63287.88;5002385;28;20018;-80
2021/08/25 06:59:46;;;;;;;15.88;10.65;;;;;;;-140.79;100.00;63287.88;4997673;28;20034;-80
2021/08/25 07:02:12;;;;;;;19.58;12.13;;;;;;;-140.79;100.00;63287.88;4997691;28;20052;-79
2021/08/25 07:04:44;;;;;;;20.30;11.82;;;;;;;-140.79;100.00;63287.88;4995035;28;20536;-80
2021/08/25 07:07:10;;;;;;;19.85;11.57;;;;;;;-140.79;100.00;63287.88;4996866;28;20029;-80
2021/08/25 07:09:36;;;;;;;17.02;12.25;;;;;;;-140.79;100.00;63287.88;5005511;28;20033;-80
2021/08/25 07:12:01;;;;;;;20.70;12.32;;;;;;;-140.79;100.00;63287.88;5005186;28;20025;-79
2021/08/25 07:14:27;;;;;;;19.95;13.00;;;;;;;-140.79;100.00;63287.88;4999359;28;20041;-79
2021/08/25 07:16:52;;;;;;;22.73;13.43;;;;;;;-140.79;100.00;63287.88;5002131;28;20456;-80
2021/08/25 07:19:18;;;;;;;20.77;13.10;;;;;;;-140.79;100.00;63287.88;5003417;28;20133;-80
2021/08/25 07:21:56;;;;;;;20.08;12.75;;;;;;;-140.79;100.00;63287.88;5004171;28;20057;-82
2021/08/25 07:24:22;;;;;;;19.33;12.82;;;;;;;-140.79;100.00;63287.88;5003661;28;20520;-81
2021/08/25 07:26:47;;;;;;;19.48;13.52;;;;;;;-140.79;100.00;63287.88;5004792;28;20060;-80
2021/08/25 07:29:13;;;;;;;23.20;13.60;;;;;;;-140.79;100.00;63287.88;5005301;28;20597;-81
2021/08/25 07:31:39;;;;;;;21.17;12.95;;;;;;;-140.79;100.00;63287.88;4996309;28;20034;-82
2021/08/25 07:34:04;;;;;;;22.95;14.38;;;;;;;-140.79;100.00;63287.88;5001712;28;20036;-79
2021/08/25 07:36:30;;;;;;;22.50;12.95;;;;;;;-140.79;100.00;63287.88;4970108;28;20044;-81
2021/08/25 07:38:55;;;;;;;20.38;13.70;;;;;;;-140.79;100.00;63287.88;4988120;28;20014;-79
2021/08/25 07:41:20;;;;;;;25.45;13.27;;;;;;;-140.79;100.00;63287.88;5005085;28;20028;-80
2021/08/25 07:43:46;;;;;;;18.45;13.00;;;;;;;-140.79;100.00;63287.88;4991720;28;20093;-81
2021/08/25 07:46:12;;;;;;;19.90;13.20;;;;;;;-140.79;100.00;63287.88;4985691;28;20015;-79
2021/08/25 07:48:37;;;;;;;21.95;13.25;;;;;;;-140.79;100.00;63287.88;4984172;28;20071;-80
2021/08/25 07:51:08;;;;;;;21.27;13.43;;;;;;;-140.79;100.00;63287.88;4985839;28;20034;-81
2021/08/25 07:53:36;;;;;;;18.17;12.40;;;;;;;-140.79;100.00;63287.88;4992082;28;20036;-80
2021/08/25 07:56:02;;;;;;;21.63;13.02;;;;;;;-140.79;100.00;63287.88;5003680;28;20029;-81
2021/08/25 07:58:27;;;;;;;22.45;13.07;;;;;;;-140.79;100.00;63287.88;4991376;28;20025;-82
2021/08/25 08:00:53;;;;;;;22.73;13.60;;;;;;;-140.79;100.00;63287.88;5006252;28;20033;-80
2021/08/25 08:03:18;;;;;;;22.05;13.05;;;;;;;-140.79;100.00;63287.88;5004951;28;20069;-80
2021/08/25 08:05:44;;;;;;;20.52;13.07;;;;;;;-140.79;100.00;63287.88;5005956;28;20032;-81
2021/08/25 08:08:10;;;;;;;18.63;12.50;;;;;;;-140.79;100.00;63287.88;5000342;28;20389;-81
2021/08/25 08:10:35;;;;;;;19.75;13.00;;;;;;;-140.79;100.00;63287.88;4986615;28;20034;-79
2021/08/25 08:13:01;;;;;;;15.20;11.68;;;;;;;-140.79;100.00;63287.88;4988469;28;20100;-80
2021/08/25 08:15:29;;;;;;;18.40;13.10;;;;;;;-140.79;100.00;63287.88;4999964;28;20401;-80
2021/08/25 08:17:54;;;;;;;19.98;13.68;;;;;;;-140.79;100.00;63287.88;5000157;28;20453;-81
2021/08/25 08:20:20;;;;;;;22.90;13.75;;;;;;;-140.79;100.00;63287.88;5006173;28;20025;-78
2021/08/25 08:22:45;;;;;;;18.98;13.15;;;;;;;-140.79;100.00;63287.88;4998070;28;20022;-80
2021/08/25 08:25:11;;;;;;;18.70;13.00;;;;;;;-140.79;100.00;63287.88;4982421;28;20539;-82
2021/08/25 08:27:36;;;;;;;21.58;13.95;;;;;;;-140.79;100.00;63287.88;4994250;28;20464;-79
2021/08/25 08:30:02;;;;;;;20.50;12.50;;;;;;;-140.79;100.00;63287.88;4986037;28;20507;-80
2021/08/25 08:32:31;;;;;;;19.33;12.98;;;;;;;-140.79;100.00;63287.88;4989665;28;20034;-80
2021/08/25 08:34:56;;;;;;;18.23;12.43;;;;;;;-140.79;100.00;63287.88;4988210;28;20030;-80
2021/08/25 08:37:22;;;;;;;19.60;13.10;;;;;;;-140.79;100.00;63287.88;4991910;28;20046;-80
2021/08/25 08:39:47;;;;;;;18.42;11.93;;;;;;;-140.79;100.00;63287.88;4988118;28;20030;-80
2021/08/25 08:42:25;;;;;;;23.35;13.32;;;;;;;-140.79;100.00;63287.88;4997027;28;20136;-80
2021/08/25 08:44:51;;;;;;;19.70;12.45;;;;;;;-140.79;100.00;63287.88;4997760;28;20491;-79
2021/08/25 08:47:17;;;;;;;19.90;12.57;;;;;;;-140.79;100.00;63287.88;4982330;28;20026;-80
2021/08/25 08:49:43;;;;;;;19.13;12.45;;;;;;;-140.79;100.00;63287.88;4984407;28;20041;-80
2021/08/25 08:52:08;;;;;;;19.20;12.38;;;;;;;-140.79;100.00;63287.88;4997962;28;20029;-81
2021/08/25 08:54:34;;;;;;;18.52;12.38;;;;;;;-140.79;100.00;63287.88;5004824;28;20080;-81
2021/08/25 08:56:59;;;;;;;20.48;13.05;;;;;;;-140.79;100.00;63287.88;4996644;28;20511;-80
2021/08/25 08:59:25;;;;;;;20.20;13.02;;;;;;;-140.79;100.00;63287.88;5004549;28;20033;-80
2021/08/25 09:01:50;;;;;;;18.75;12.57;;;;;;;-140.79;100.00;63287.88;4998179;28;20034;-80
2021/08/25 09:04:35;;;;;;;18.13;12.10;;;;;;;-140.79;100.00;63287.88;4996644;28;20533;-85
2021/08/25 09:07:03;;;;;;;15.73;11.95;;;;;;;-140.79;100.00;63287.88;5008983;28;20043;-78
2021/08/25 09:09:29;;;;;;;21.25;12.60;;;;;;;-140.79;100.00;63287.88;4997031;28;20093;-79
2021/08/25 09:11:55;;;;;;;17.40;12.70;;;;;;;-140.79;100.00;63287.88;5001372;28;20026;-80
2021/08/25 09:14:27;;;;;;;16.27;11.90;;;;;;;-140.79;100.00;63287.88;5007849;28;20033;-83
2021/08/25 09:16:52;;;;;;;16.85;12.02;;;;;;;-140.79;100.00;63287.88;4999434;28;20026;-79
2021/08/25 09:19:18;;;;;;;18.73;12.27;;;;;;;-140.79;100.00;63287.88;4997310;28;20033;-79
2021/08/25 09:21:51;;;;;;;19.48;12.23;;;;;;;-140.79;100.00;63287.88;4997545;28;20022;-77
2021/08/25 09:24:21;;;;;;;19.77;12.35;;;;;;;-140.79;100.00;63287.88;5001083;28;20064;-83
2021/08/25 09:27:13;;;;;;;16.33;12.88;;;;;;;-140.79;100.00;63287.88;4980579;28;20040;-84
2021/08/25 09:29:40;;;;;;;16.52;11.50;;;;;;;-140.79;100.00;63287.88;4995282;28;20099;-81
2021/08/25 09:32:22;;;;;;;18.38;12.82;;;;;;;-140.79;100.00;63287.88;4990234;28;20036;-80
2021/08/25 09:34:56;;;;;;;16.15;11.80;;;;;;;-140.79;100.00;63287.88;5008483;28;20038;-80
2021/08/25 09:37:21;;;;;;;16.23;11.75;;;;;;;-140.79;100.00;63287.88;5009133;28;20033;-83
2021/08/25 09:39:51;;;;;;;14.85;11.43;;;;;;;-140.79;100.00;63287.88;5011899;28;20045;-83
2021/08/25 09:42:17;;;;;;;;;;;;;;;-140.79;100.00;63287.88;4994943;28;20565;-82
2021/08/25 09:44:43;;;;;;;15.93;10.90;;;;;;;-140.79;100.00;63287.88;5010409;28;20033;-81
2021/08/25 09:47:09;;;;;;;14.63;11.43;;;;;;;-140.79;100.00;63287.88;5011526;28;20022;-81
2021/08/25 09:49:34;;;;;;;19.25;11.65;;;;;;;-140.79;100.00;63287.88;5011640;28;20022;-80
2021/08/25 09:52:00;;;;;;;15.80;11.20;;;;;;;-140.79;100.00;63287.88;5011710;28;20470;-81
2021/08/25 09:54:25;;;;;;;18.30;11.35;;;;;;;-140.79;100.00;63287.88;5010011;28;20535;-81
2021/08/25 09:56:54;;;;;;;17.00;12.07;;;;;;;-140.79;100.00;63287.88;4994649;28;20037;-81
2021/08/25 09:59:20;;;;;;;14.85;10.90;;;;;;;-140.79;100.00;63287.88;4994440;28;20425;-80
2021/08/25 10:01:46;;;;;;;18.33;11.73;;;;;;;-140.79;100.00;63287.88;5011045;28;20029;-81
2021/08/25 10:04:15;;;;;;;14.75;10.85;;;;;;;-140.79;100.00;63287.88;5010457;28;20042;-81
2021/08/25 10:06:42;;;;;;;17.40;12.10;;;;;;;-140.79;100.00;63287.88;5009888;28;20068;-80
2021/08/25 10:09:08;;;;;;;16.08;11.18;;;;;;;-140.79;100.00;63287.88;4991683;28;20512;-81
2021/08/25 10:11:38;;;;;;;13.30;10.27;;;;;;;-140.79;100.00;63287.88;4993299;28;20066;-81
2021/08/25 10:14:07;;;;;;;;;;;;;;;-140.79;100.00;63287.88;4991679;28;20484;-76
2021/08/25 10:16:49;;;;;;;19.25;12.20;;;;;;;-140.79;100.00;63287.88;5009197;28;19914;-81
2021/08/25 10:19:37;;;;;;;25.73;13.70;;;;;;;-140.79;100.00;63287.88;5009973;28;20029;-80
2021/08/25 10:22:09;;;;;;;27.83;13.95;;;;;;;-140.79;100.00;63287.88;4992160;28;20125;-79
2021/08/25 10:24:53;;;;;;;29.55;14.45;;;;;;;-140.79;100.00;63287.88;5005761;28;20045;-85
2021/08/25 10:27:25;;;;;;;24.02;13.98;;;;;;;-140.79;100.00;63287.88;4998608;28;20029;-81
2021/08/25 10:30:07;;;;;;;19.23;13.63;;;;;;;-140.79;100.00;63287.88;4998006;28;20038;-80
2021/08/25 10:32:52;;;;;;;20.48;13.25;;;;;;;-140.79;100.00;63287.88;5004836;28;20046;-77
2021/08/25 10:35:17;;;;;;;22.70;13.85;;;;;;;-140.79;100.00;63287.88;5005578;28;20061;-79
2021/08/25 10:37:44;;;;;;;24.73;14.48;;;;;;;-140.79;100.00;63287.88;5006990;28;20026;-79
2021/08/25 10:40:10;;;;;;;27.13;14.00;;;;;;;-140.79;100.00;63287.88;4991358;28;20034;-79
2021/08/25 10:42:42;;;;;;;21.20;12.93;;;;;;;-140.79;100.00;63287.88;5002974;28;20026;-81
2021/08/25 10:45:08;;;;;;;18.85;12.93;;;;;;;-140.79;100.00;63287.88;4997785;28;20026;-81
2021/08/25 10:47:58;;;;;;;21.00;13.60;;;;;;;-140.79;100.00;63287.88;4984298;28;20108;-79
2021/08/25 10:50:44;;;;;;;18.33;13.13;;;;;;;-140.79;100.00;63287.88;5002948;28;20026;-81
2021/08/25 10:53:28;;;;;;;18.00;12.38;;;;;;;-140.79;100.00;63287.88;5002126;28;20084;-78